sensor_id;sensor_type;location;lat;lon;timestamp;P1;durP1;ratioP1;P2;durP2;ratioP2
66603;SDS011;53460;39.612;8.822;2022-07-19T00:02:00;3.20;;;1.20;;
66603;SDS011;53460;39.612;8.822;2022-07-19T00:04:26;1.20;;;1.00;;
66603;SDS011;53460;39.612;8.822;2022-07-19T00:06:51;1.98;;;1.15;;
66603;SDS011;53460;39.612;8.822;2022-07-19T00:09:20;2.20;;;1.23;;
66603;SDS011;53460;39.612;8.822;2022-07-19T00:11:46;1.75;;;1.17;;
66603;SDS011;53460;39.612;8.822;2022-07-19T00:14:12;3.60;;;1.20;;
66603;SDS011;53460;39.612;8.822;2022-07-19T00:16:38;0.85;;;0.85;;
66603;SDS011;53460;39.612;8.822;2022-07-19T00:19:04;2.65;;;1.25;;
66603;SDS011;53460;39.612;8.822;2022-07-19T00:21:30;1.70;;;1.30;;
66603;SDS011;53460;39.612;8.822;2022-07-19T00:23:55;1.30;;;1.20;;
66603;SDS011;53460;39.612;8.822;2022-07-19T00:26:21;3.70;;;1.27;;
66603;SDS011;53460;39.612;8.822;2022-07-19T00:28:47;2.63;;;1.10;;
66603;SDS011;53460;39.612;8.822;2022-07-19T00:31:12;1.15;;;1.05;;
66603;SDS011;53460;39.612;8.822;2022-07-19T00:33:38;1.67;;;1.27;;
66603;SDS011;53460;39.612;8.822;2022-07-19T00:36:04;1.25;;;1.13;;
66603;SDS011;53460;39.612;8.822;2022-07-19T00:38:30;1.92;;;1.45;;
66603;SDS011;53460;39.612;8.822;2022-07-19T00:40:55;6.22;;;1.55;;
66603;SDS011;53460;39.612;8.822;2022-07-19T00:43:21;1.58;;;1.20;;
66603;SDS011;53460;39.612;8.822;2022-07-19T00:45:47;1.88;;;1.63;;
66603;SDS011;53460;39.612;8.822;2022-07-19T00:48:12;2.85;;;1.42;;
66603;SDS011;53460;39.612;8.822;2022-07-19T00:50:39;1.30;;;1.10;;
66603;SDS011;53460;39.612;8.822;2022-07-19T00:53:04;1.13;;;1.10;;
66603;SDS011;53460;39.612;8.822;2022-07-19T00:55:32;1.40;;;1.20;;
66603;SDS011;53460;39.612;8.822;2022-07-19T00:57:59;1.77;;;1.20;;
66603;SDS011;53460;39.612;8.822;2022-07-19T01:00:26;2.45;;;0.90;;
66603;SDS011;53460;39.612;8.822;2022-07-19T01:02:53;4.60;;;0.77;;
66603;SDS011;53460;39.612;8.822;2022-07-19T01:05:19;1.85;;;1.27;;
66603;SDS011;53460;39.612;8.822;2022-07-19T01:07:45;2.65;;;1.35;;
66603;SDS011;53460;39.612;8.822;2022-07-19T01:10:12;1.60;;;1.15;;
66603;SDS011;53460;39.612;8.822;2022-07-19T01:12:39;2.35;;;1.20;;
66603;SDS011;53460;39.612;8.822;2022-07-19T01:17:51;2.40;;;1.10;;
66603;SDS011;53460;39.612;8.822;2022-07-19T01:20:17;1.52;;;1.10;;
66603;SDS011;53460;39.612;8.822;2022-07-19T01:22:45;4.18;;;1.20;;
66603;SDS011;53460;39.612;8.822;2022-07-19T01:25:12;1.70;;;1.25;;
66603;SDS011;53460;39.612;8.822;2022-07-19T01:27:41;3.00;;;1.40;;
66603;SDS011;53460;39.612;8.822;2022-07-19T01:30:16;3.03;;;1.30;;
66603;SDS011;53460;39.612;8.822;2022-07-19T01:32:46;2.13;;;1.02;;
66603;SDS011;53460;39.612;8.822;2022-07-19T01:35:13;1.50;;;1.25;;
66603;SDS011;53460;39.612;8.822;2022-07-19T01:37:39;3.00;;;1.52;;
66603;SDS011;53460;39.612;8.822;2022-07-19T01:40:06;2.42;;;1.10;;
66603;SDS011;53460;39.612;8.822;2022-07-19T01:42:34;1.85;;;1.23;;
66603;SDS011;53460;39.612;8.822;2022-07-19T01:44:59;3.10;;;1.30;;
66603;SDS011;53460;39.612;8.822;2022-07-19T01:47:25;1.85;;;1.25;;
66603;SDS011;53460;39.612;8.822;2022-07-19T01:49:51;4.20;;;1.27;;
66603;SDS011;53460;39.612;8.822;2022-07-19T01:52:17;2.53;;;1.38;;
66603;SDS011;53460;39.612;8.822;2022-07-19T01:54:42;1.70;;;1.20;;
66603;SDS011;53460;39.612;8.822;2022-07-19T01:57:08;1.45;;;1.30;;
66603;SDS011;53460;39.612;8.822;2022-07-19T01:59:38;2.20;;;1.35;;
66603;SDS011;53460;39.612;8.822;2022-07-19T02:02:04;1.80;;;1.27;;
66603;SDS011;53460;39.612;8.822;2022-07-19T02:04:31;1.75;;;1.30;;
66603;SDS011;53460;39.612;8.822;2022-07-19T02:06:56;2.55;;;1.25;;
66603;SDS011;53460;39.612;8.822;2022-07-19T02:09:22;1.30;;;1.20;;
66603;SDS011;53460;39.612;8.822;2022-07-19T02:11:48;1.65;;;1.25;;
66603;SDS011;53460;39.612;8.822;2022-07-19T02:14:14;3.47;;;1.63;;
66603;SDS011;53460;39.612;8.822;2022-07-19T02:16:40;1.80;;;1.40;;
66603;SDS011;53460;39.612;8.822;2022-07-19T02:19:06;1.58;;;1.48;;
66603;SDS011;53460;39.612;8.822;2022-07-19T02:21:33;1.45;;;1.30;;
66603;SDS011;53460;39.612;8.822;2022-07-19T02:23:59;1.73;;;1.23;;
66603;SDS011;53460;39.612;8.822;2022-07-19T02:26:25;2.58;;;1.85;;
66603;SDS011;53460;39.612;8.822;2022-07-19T02:28:50;2.70;;;1.33;;
66603;SDS011;53460;39.612;8.822;2022-07-19T02:31:17;3.40;;;1.40;;
66603;SDS011;53460;39.612;8.822;2022-07-19T02:33:43;1.50;;;1.38;;
66603;SDS011;53460;39.612;8.822;2022-07-19T02:36:08;1.38;;;1.23;;
66603;SDS011;53460;39.612;8.822;2022-07-19T02:38:34;1.80;;;1.70;;
66603;SDS011;53460;39.612;8.822;2022-07-19T02:41:00;1.73;;;1.30;;
66603;SDS011;53460;39.612;8.822;2022-07-19T02:43:25;1.40;;;1.23;;
66603;SDS011;53460;39.612;8.822;2022-07-19T02:45:51;2.50;;;1.45;;
66603;SDS011;53460;39.612;8.822;2022-07-19T02:48:17;1.25;;;1.15;;
66603;SDS011;53460;39.612;8.822;2022-07-19T02:50:43;2.05;;;1.38;;
66603;SDS011;53460;39.612;8.822;2022-07-19T02:53:09;1.50;;;1.20;;
66603;SDS011;53460;39.612;8.822;2022-07-19T02:55:35;5.20;;;1.45;;
66603;SDS011;53460;39.612;8.822;2022-07-19T02:58:01;1.25;;;1.15;;
66603;SDS011;53460;39.612;8.822;2022-07-19T03:00:28;2.00;;;1.40;;
66603;SDS011;53460;39.612;8.822;2022-07-19T03:02:53;1.30;;;1.20;;
66603;SDS011;53460;39.612;8.822;2022-07-19T03:05:19;4.68;;;1.25;;
66603;SDS011;53460;39.612;8.822;2022-07-19T03:07:45;1.42;;;1.23;;
66603;SDS011;53460;39.612;8.822;2022-07-19T03:10:11;1.38;;;1.15;;
66603;SDS011;53460;39.612;8.822;2022-07-19T03:12:36;1.40;;;1.30;;
66603;SDS011;53460;39.612;8.822;2022-07-19T03:15:02;2.45;;;1.30;;
66603;SDS011;53460;39.612;8.822;2022-07-19T03:17:29;2.10;;;1.52;;
66603;SDS011;53460;39.612;8.822;2022-07-19T03:19:54;1.23;;;1.13;;
66603;SDS011;53460;39.612;8.822;2022-07-19T03:22:20;5.55;;;1.50;;
66603;SDS011;53460;39.612;8.822;2022-07-19T03:24:46;2.55;;;1.30;;
66603;SDS011;53460;39.612;8.822;2022-07-19T03:27:11;3.50;;;1.90;;
66603;SDS011;53460;39.612;8.822;2022-07-19T03:29:37;4.00;;;1.45;;
66603;SDS011;53460;39.612;8.822;2022-07-19T03:32:03;1.63;;;1.50;;
66603;SDS011;53460;39.612;8.822;2022-07-19T03:34:29;1.67;;;1.50;;
66603;SDS011;53460;39.612;8.822;2022-07-19T03:36:55;2.72;;;1.40;;
66603;SDS011;53460;39.612;8.822;2022-07-19T03:39:20;1.77;;;1.40;;
66603;SDS011;53460;39.612;8.822;2022-07-19T03:41:46;3.30;;;1.63;;
66603;SDS011;53460;39.612;8.822;2022-07-19T03:44:12;5.60;;;1.75;;
66603;SDS011;53460;39.612;8.822;2022-07-19T03:46:38;5.18;;;2.03;;
66603;SDS011;53460;39.612;8.822;2022-07-19T03:49:03;5.07;;;2.92;;
66603;SDS011;53460;39.612;8.822;2022-07-19T03:51:29;6.35;;;3.38;;
66603;SDS011;53460;39.612;8.822;2022-07-19T03:53:55;4.25;;;3.47;;
66603;SDS011;53460;39.612;8.822;2022-07-19T03:56:20;5.88;;;3.90;;
66603;SDS011;53460;39.612;8.822;2022-07-19T03:58:47;8.98;;;4.10;;
66603;SDS011;53460;39.612;8.822;2022-07-19T04:01:14;11.45;;;4.05;;
66603;SDS011;53460;39.612;8.822;2022-07-19T04:03:40;7.03;;;3.25;;
66603;SDS011;53460;39.612;8.822;2022-07-19T04:06:06;8.55;;;2.97;;
66603;SDS011;53460;39.612;8.822;2022-07-19T04:08:33;5.80;;;2.65;;
66603;SDS011;53460;39.612;8.822;2022-07-19T04:10:59;4.60;;;2.50;;
66603;SDS011;53460;39.612;8.822;2022-07-19T04:13:25;10.55;;;3.22;;
66603;SDS011;53460;39.612;8.822;2022-07-19T04:15:51;5.40;;;2.75;;
66603;SDS011;53460;39.612;8.822;2022-07-19T04:18:17;5.65;;;2.38;;
66603;SDS011;53460;39.612;8.822;2022-07-19T04:20:42;6.57;;;2.45;;
66603;SDS011;53460;39.612;8.822;2022-07-19T04:23:08;4.13;;;2.38;;
66603;SDS011;53460;39.612;8.822;2022-07-19T04:25:34;4.60;;;2.05;;
66603;SDS011;53460;39.612;8.822;2022-07-19T04:28:00;5.35;;;2.30;;
66603;SDS011;53460;39.612;8.822;2022-07-19T04:30:27;3.92;;;2.10;;
66603;SDS011;53460;39.612;8.822;2022-07-19T04:32:53;3.90;;;2.28;;
66603;SDS011;53460;39.612;8.822;2022-07-19T04:35:19;8.70;;;2.20;;
66603;SDS011;53460;39.612;8.822;2022-07-19T04:37:44;9.05;;;3.22;;
66603;SDS011;53460;39.612;8.822;2022-07-19T04:40:10;14.32;;;2.75;;
66603;SDS011;53460;39.612;8.822;2022-07-19T04:42:36;4.90;;;2.60;;
66603;SDS011;53460;39.612;8.822;2022-07-19T04:45:03;7.80;;;4.00;;
66603;SDS011;53460;39.612;8.822;2022-07-19T04:47:29;16.08;;;7.63;;
66603;SDS011;53460;39.612;8.822;2022-07-19T04:49:55;24.92;;;12.55;;
66603;SDS011;53460;39.612;8.822;2022-07-19T04:52:20;35.67;;;14.75;;
66603;SDS011;53460;39.612;8.822;2022-07-19T04:54:46;27.35;;;11.10;;
66603;SDS011;53460;39.612;8.822;2022-07-19T04:57:12;11.30;;;4.20;;
66603;SDS011;53460;39.612;8.822;2022-07-19T04:59:39;14.70;;;4.47;;
66603;SDS011;53460;39.612;8.822;2022-07-19T05:02:05;5.93;;;3.33;;
66603;SDS011;53460;39.612;8.822;2022-07-19T05:04:30;6.07;;;3.05;;
66603;SDS011;53460;39.612;8.822;2022-07-19T05:06:56;4.78;;;2.90;;
66603;SDS011;53460;39.612;8.822;2022-07-19T05:09:23;5.15;;;2.38;;
66603;SDS011;53460;39.612;8.822;2022-07-19T05:11:52;11.20;;;2.97;;
66603;SDS011;53460;39.612;8.822;2022-07-19T05:14:19;10.63;;;2.83;;
66603;SDS011;53460;39.612;8.822;2022-07-19T05:16:45;8.07;;;2.40;;
66603;SDS011;53460;39.612;8.822;2022-07-19T05:19:12;5.60;;;2.40;;
66603;SDS011;53460;39.612;8.822;2022-07-19T05:21:37;3.75;;;2.33;;
66603;SDS011;53460;39.612;8.822;2022-07-19T05:24:03;6.22;;;2.72;;
66603;SDS011;53460;39.612;8.822;2022-07-19T05:26:29;10.80;;;2.53;;
66603;SDS011;53460;39.612;8.822;2022-07-19T05:28:55;8.27;;;2.72;;
66603;SDS011;53460;39.612;8.822;2022-07-19T05:31:21;13.55;;;2.33;;
66603;SDS011;53460;39.612;8.822;2022-07-19T05:33:47;15.52;;;2.25;;
66603;SDS011;53460;39.612;8.822;2022-07-19T05:36:12;7.72;;;2.38;;
66603;SDS011;53460;39.612;8.822;2022-07-19T05:38:38;10.10;;;2.40;;
66603;SDS011;53460;39.612;8.822;2022-07-19T05:41:07;11.50;;;2.63;;
66603;SDS011;53460;39.612;8.822;2022-07-19T05:43:35;10.68;;;3.13;;
66603;SDS011;53460;39.612;8.822;2022-07-19T05:46:02;35.90;;;4.00;;
66603;SDS011;53460;39.612;8.822;2022-07-19T05:48:29;23.25;;;3.30;;
66603;SDS011;53460;39.612;8.822;2022-07-19T05:50:55;12.57;;;2.65;;
66603;SDS011;53460;39.612;8.822;2022-07-19T05:53:21;11.13;;;2.55;;
66603;SDS011;53460;39.612;8.822;2022-07-19T05:55:46;8.25;;;2.20;;
66603;SDS011;53460;39.612;8.822;2022-07-19T05:58:12;28.88;;;3.30;;
66603;SDS011;53460;39.612;8.822;2022-07-19T06:00:38;20.10;;;2.83;;
66603;SDS011;53460;39.612;8.822;2022-07-19T06:03:24;22.95;;;2.72;;
66603;SDS011;53460;39.612;8.822;2022-07-19T06:05:52;5.03;;;1.92;;
66603;SDS011;53460;39.612;8.822;2022-07-19T06:08:17;5.38;;;2.20;;
66603;SDS011;53460;39.612;8.822;2022-07-19T06:10:43;4.10;;;1.67;;
66603;SDS011;53460;39.612;8.822;2022-07-19T06:13:09;2.30;;;1.40;;
66603;SDS011;53460;39.612;8.822;2022-07-19T06:15:34;5.32;;;1.30;;
66603;SDS011;53460;39.612;8.822;2022-07-19T06:18:00;5.22;;;2.03;;
66603;SDS011;53460;39.612;8.822;2022-07-19T06:20:26;3.65;;;1.60;;
66603;SDS011;53460;39.612;8.822;2022-07-19T06:22:51;3.38;;;1.25;;
66603;SDS011;53460;39.612;8.822;2022-07-19T06:25:17;3.92;;;1.30;;
66603;SDS011;53460;39.612;8.822;2022-07-19T06:27:42;2.20;;;1.15;;
66603;SDS011;53460;39.612;8.822;2022-07-19T06:30:08;9.50;;;2.15;;
66603;SDS011;53460;39.612;8.822;2022-07-19T06:32:34;3.10;;;1.00;;
66603;SDS011;53460;39.612;8.822;2022-07-19T06:35:00;6.72;;;1.25;;
66603;SDS011;53460;39.612;8.822;2022-07-19T06:37:25;3.38;;;1.23;;
66603;SDS011;53460;39.612;8.822;2022-07-19T06:39:51;8.55;;;1.33;;
66603;SDS011;53460;39.612;8.822;2022-07-19T06:42:17;7.63;;;1.13;;
66603;SDS011;53460;39.612;8.822;2022-07-19T06:44:43;4.25;;;1.20;;
66603;SDS011;53460;39.612;8.822;2022-07-19T06:47:09;1.95;;;1.42;;
66603;SDS011;53460;39.612;8.822;2022-07-19T06:49:34;2.97;;;0.95;;
66603;SDS011;53460;39.612;8.822;2022-07-19T06:52:00;1.83;;;0.93;;
66603;SDS011;53460;39.612;8.822;2022-07-19T06:54:26;1.70;;;1.10;;
66603;SDS011;53460;39.612;8.822;2022-07-19T06:56:52;6.32;;;1.40;;
66603;SDS011;53460;39.612;8.822;2022-07-19T06:59:19;1.13;;;1.00;;
66603;SDS011;53460;39.612;8.822;2022-07-19T07:01:45;6.60;;;1.20;;
66603;SDS011;53460;39.612;8.822;2022-07-19T07:04:10;3.50;;;1.23;;
66603;SDS011;53460;39.612;8.822;2022-07-19T07:06:36;0.93;;;0.80;;
66603;SDS011;53460;39.612;8.822;2022-07-19T07:09:02;3.08;;;1.38;;
66603;SDS011;53460;39.612;8.822;2022-07-19T07:11:28;1.58;;;1.10;;
66603;SDS011;53460;39.612;8.822;2022-07-19T07:13:54;2.80;;;1.10;;
66603;SDS011;53460;39.612;8.822;2022-07-19T07:16:21;4.05;;;1.10;;
66603;SDS011;53460;39.612;8.822;2022-07-19T07:18:47;1.35;;;0.98;;
66603;SDS011;53460;39.612;8.822;2022-07-19T07:21:12;3.15;;;1.20;;
66603;SDS011;53460;39.612;8.822;2022-07-19T07:23:38;3.30;;;1.05;;
66603;SDS011;53460;39.612;8.822;2022-07-19T07:26:04;1.40;;;0.95;;
66603;SDS011;53460;39.612;8.822;2022-07-19T07:28:30;1.48;;;0.93;;
66603;SDS011;53460;39.612;8.822;2022-07-19T07:30:56;1.95;;;0.93;;
66603;SDS011;53460;39.612;8.822;2022-07-19T07:33:21;1.20;;;0.88;;
66603;SDS011;53460;39.612;8.822;2022-07-19T07:35:47;2.20;;;1.17;;
66603;SDS011;53460;39.612;8.822;2022-07-19T07:38:13;2.58;;;1.00;;
66603;SDS011;53460;39.612;8.822;2022-07-19T07:40:39;2.65;;;1.10;;
66603;SDS011;53460;39.612;8.822;2022-07-19T07:43:04;8.68;;;1.08;;
66603;SDS011;53460;39.612;8.822;2022-07-19T07:45:31;2.25;;;0.93;;
66603;SDS011;53460;39.612;8.822;2022-07-19T07:47:57;1.85;;;1.08;;
66603;SDS011;53460;39.612;8.822;2022-07-19T07:50:23;2.33;;;0.75;;
66603;SDS011;53460;39.612;8.822;2022-07-19T07:52:49;2.78;;;1.05;;
66603;SDS011;53460;39.612;8.822;2022-07-19T07:55:15;4.40;;;1.00;;
66603;SDS011;53460;39.612;8.822;2022-07-19T07:57:42;3.33;;;1.00;;
66603;SDS011;53460;39.612;8.822;2022-07-19T08:00:08;4.43;;;1.17;;
66603;SDS011;53460;39.612;8.822;2022-07-19T08:02:38;3.65;;;1.10;;
66603;SDS011;53460;39.612;8.822;2022-07-19T08:05:05;2.67;;;1.30;;
66603;SDS011;53460;39.612;8.822;2022-07-19T08:07:31;5.65;;;1.15;;
66603;SDS011;53460;39.612;8.822;2022-07-19T08:09:57;5.95;;;1.25;;
66603;SDS011;53460;39.612;8.822;2022-07-19T08:12:24;2.17;;;1.10;;
66603;SDS011;53460;39.612;8.822;2022-07-19T08:14:50;1.85;;;1.10;;
66603;SDS011;53460;39.612;8.822;2022-07-19T08:17:16;4.13;;;1.15;;
66603;SDS011;53460;39.612;8.822;2022-07-19T08:19:42;9.23;;;1.45;;
66603;SDS011;53460;39.612;8.822;2022-07-19T08:22:07;9.50;;;1.60;;
66603;SDS011;53460;39.612;8.822;2022-07-19T08:24:33;28.88;;;3.05;;
66603;SDS011;53460;39.612;8.822;2022-07-19T08:26:59;5.85;;;1.33;;
66603;SDS011;53460;39.612;8.822;2022-07-19T08:29:25;1.20;;;1.00;;
66603;SDS011;53460;39.612;8.822;2022-07-19T08:31:51;7.32;;;1.15;;
66603;SDS011;53460;39.612;8.822;2022-07-19T08:34:16;2.45;;;1.17;;
66603;SDS011;53460;39.612;8.822;2022-07-19T08:36:42;1.15;;;1.05;;
66603;SDS011;53460;39.612;8.822;2022-07-19T08:39:08;2.95;;;1.42;;
66603;SDS011;53460;39.612;8.822;2022-07-19T08:41:34;3.92;;;1.10;;
66603;SDS011;53460;39.612;8.822;2022-07-19T08:44:01;10.43;;;1.38;;
66603;SDS011;53460;39.612;8.822;2022-07-19T08:46:28;12.80;;;1.40;;
66603;SDS011;53460;39.612;8.822;2022-07-19T08:48:54;2.78;;;1.17;;
66603;SDS011;53460;39.612;8.822;2022-07-19T08:51:21;2.88;;;1.20;;
66603;SDS011;53460;39.612;8.822;2022-07-19T08:53:48;2.45;;;1.45;;
66603;SDS011;53460;39.612;8.822;2022-07-19T08:56:14;4.05;;;1.10;;
66603;SDS011;53460;39.612;8.822;2022-07-19T08:58:58;3.85;;;1.25;;
66603;SDS011;53460;39.612;8.822;2022-07-19T09:01:24;4.82;;;1.30;;
66603;SDS011;53460;39.612;8.822;2022-07-19T09:06:54;2.67;;;1.05;;
66603;SDS011;53460;39.612;8.822;2022-07-19T09:09:22;1.52;;;0.95;;
66603;SDS011;53460;39.612;8.822;2022-07-19T09:11:54;1.45;;;0.88;;
66603;SDS011;53460;39.612;8.822;2022-07-19T09:14:22;7.20;;;1.52;;
66603;SDS011;53460;39.612;8.822;2022-07-19T09:19:34;6.18;;;1.27;;
66603;SDS011;53460;39.612;8.822;2022-07-19T09:22:11;3.25;;;1.20;;
66603;SDS011;53460;39.612;8.822;2022-07-19T09:24:39;3.38;;;1.30;;
66603;SDS011;53460;39.612;8.822;2022-07-19T09:27:10;4.70;;;1.40;;
66603;SDS011;53460;39.612;8.822;2022-07-19T09:29:43;13.83;;;1.30;;
66603;SDS011;53460;39.612;8.822;2022-07-19T09:32:16;4.13;;;1.20;;
66603;SDS011;53460;39.612;8.822;2022-07-19T09:39:48;6.00;;;1.40;;
66603;SDS011;53460;39.612;8.822;2022-07-19T09:42:17;4.85;;;1.88;;
66603;SDS011;53460;39.612;8.822;2022-07-19T09:44:45;9.90;;;1.73;;
66603;SDS011;53460;39.612;8.822;2022-07-19T09:47:11;12.07;;;2.25;;
66603;SDS011;53460;39.612;8.822;2022-07-19T09:49:38;5.88;;;1.50;;
66603;SDS011;53460;39.612;8.822;2022-07-19T09:52:04;6.80;;;1.58;;
66603;SDS011;53460;39.612;8.822;2022-07-19T09:54:30;5.97;;;1.02;;
66603;SDS011;53460;39.612;8.822;2022-07-19T09:56:57;3.05;;;1.08;;
66603;SDS011;53460;39.612;8.822;2022-07-19T09:59:24;4.32;;;1.00;;
66603;SDS011;53460;39.612;8.822;2022-07-19T10:01:52;3.97;;;1.00;;
66603;SDS011;53460;39.612;8.822;2022-07-19T10:04:20;2.03;;;1.20;;
66603;SDS011;53460;39.612;8.822;2022-07-19T10:06:48;2.85;;;0.90;;
66603;SDS011;53460;39.612;8.822;2022-07-19T10:09:16;3.88;;;0.90;;
66603;SDS011;53460;39.612;8.822;2022-07-19T10:11:43;3.40;;;1.30;;
66603;SDS011;53460;39.612;8.822;2022-07-19T10:14:09;3.55;;;1.20;;
66603;SDS011;53460;39.612;8.822;2022-07-19T10:21:54;3.22;;;1.10;;
66603;SDS011;53460;39.612;8.822;2022-07-19T10:32:28;2.25;;;1.00;;
66603;SDS011;53460;39.612;8.822;2022-07-19T10:35:37;2.35;;;0.93;;
66603;SDS011;53460;39.612;8.822;2022-07-19T10:45:32;2.47;;;1.10;;
66603;SDS011;53460;39.612;8.822;2022-07-19T10:48:06;2.72;;;1.10;;
66603;SDS011;53460;39.612;8.822;2022-07-19T10:50:46;5.28;;;0.90;;
66603;SDS011;53460;39.612;8.822;2022-07-19T10:56:17;1.25;;;0.80;;
66603;SDS011;53460;39.612;8.822;2022-07-19T10:58:51;1.20;;;0.80;;
66603;SDS011;53460;39.612;8.822;2022-07-19T11:01:19;2.22;;;0.90;;
66603;SDS011;53460;39.612;8.822;2022-07-19T11:03:47;2.67;;;0.90;;
66603;SDS011;53460;39.612;8.822;2022-07-19T11:06:27;3.00;;;0.90;;
66603;SDS011;53460;39.612;8.822;2022-07-19T11:08:54;3.92;;;1.08;;
66603;SDS011;53460;39.612;8.822;2022-07-19T11:11:21;1.55;;;0.90;;
66603;SDS011;53460;39.612;8.822;2022-07-19T11:13:48;3.75;;;1.13;;
66603;SDS011;53460;39.612;8.822;2022-07-19T11:16:15;3.35;;;0.80;;
66603;SDS011;53460;39.612;8.822;2022-07-19T11:18:41;1.80;;;0.90;;
66603;SDS011;53460;39.612;8.822;2022-07-19T11:21:08;0.98;;;0.82;;
66603;SDS011;53460;39.612;8.822;2022-07-19T11:23:36;1.45;;;0.90;;
66603;SDS011;53460;39.612;8.822;2022-07-19T11:28:38;1.42;;;0.95;;
66603;SDS011;53460;39.612;8.822;2022-07-19T11:31:23;3.72;;;1.20;;
66603;SDS011;53460;39.612;8.822;2022-07-19T11:33:50;3.45;;;1.10;;
66603;SDS011;53460;39.612;8.822;2022-07-19T11:36:18;2.42;;;1.23;;
66603;SDS011;53460;39.612;8.822;2022-07-19T11:38:52;5.18;;;1.00;;
66603;SDS011;53460;39.612;8.822;2022-07-19T11:41:26;3.72;;;0.93;;
66603;SDS011;53460;39.612;8.822;2022-07-19T11:46:30;4.72;;;1.00;;
66603;SDS011;53460;39.612;8.822;2022-07-19T11:49:02;2.55;;;0.95;;
66603;SDS011;53460;39.612;8.822;2022-07-19T11:51:30;1.17;;;1.00;;
66603;SDS011;53460;39.612;8.822;2022-07-19T11:53:56;2.22;;;1.10;;
66603;SDS011;53460;39.612;8.822;2022-07-19T11:56:24;5.10;;;1.17;;
66603;SDS011;53460;39.612;8.822;2022-07-19T11:58:52;2.95;;;0.80;;
66603;SDS011;53460;39.612;8.822;2022-07-19T12:01:30;2.53;;;1.10;;
66603;SDS011;53460;39.612;8.822;2022-07-19T12:09:12;1.92;;;1.05;;
66603;SDS011;53460;39.612;8.822;2022-07-19T12:11:45;1.13;;;0.82;;
66603;SDS011;53460;39.612;8.822;2022-07-19T12:14:26;1.70;;;0.90;;
66603;SDS011;53460;39.612;8.822;2022-07-19T12:19:41;9.95;;;1.33;;
66603;SDS011;53460;39.612;8.822;2022-07-19T12:22:26;1.52;;;0.90;;
66603;SDS011;53460;39.612;8.822;2022-07-19T12:24:57;2.75;;;1.20;;
66603;SDS011;53460;39.612;8.822;2022-07-19T12:27:23;177.90;;;8.27;;
66603;SDS011;53460;39.612;8.822;2022-07-19T12:29:53;4.53;;;1.17;;
66603;SDS011;53460;39.612;8.822;2022-07-19T12:32:27;1.08;;;0.90;;
66603;SDS011;53460;39.612;8.822;2022-07-19T12:37:35;2.60;;;0.90;;
66603;SDS011;53460;39.612;8.822;2022-07-19T12:40:19;0.80;;;0.80;;
66603;SDS011;53460;39.612;8.822;2022-07-19T12:42:54;2.38;;;1.30;;
66603;SDS011;53460;39.612;8.822;2022-07-19T12:45:29;1.98;;;1.00;;
66603;SDS011;53460;39.612;8.822;2022-07-19T12:47:55;1.95;;;0.75;;
66603;SDS011;53460;39.612;8.822;2022-07-19T12:52:55;7.88;;;1.05;;
66603;SDS011;53460;39.612;8.822;2022-07-19T12:55:24;3.15;;;1.10;;
66603;SDS011;53460;39.612;8.822;2022-07-19T12:57:51;2.90;;;1.02;;
66603;SDS011;53460;39.612;8.822;2022-07-19T13:00:21;3.50;;;1.10;;
66603;SDS011;53460;39.612;8.822;2022-07-19T13:02:49;2.05;;;0.90;;
66603;SDS011;53460;39.612;8.822;2022-07-19T13:05:15;2.47;;;1.17;;
66603;SDS011;53460;39.612;8.822;2022-07-19T13:07:42;3.53;;;1.00;;
66603;SDS011;53460;39.612;8.822;2022-07-19T13:10:07;1.42;;;0.90;;
66603;SDS011;53460;39.612;8.822;2022-07-19T13:12:34;1.80;;;0.80;;
66603;SDS011;53460;39.612;8.822;2022-07-19T13:14:59;3.53;;;0.80;;
66603;SDS011;53460;39.612;8.822;2022-07-19T13:17:25;2.22;;;0.80;;
66603;SDS011;53460;39.612;8.822;2022-07-19T13:19:51;3.85;;;0.73;;
66603;SDS011;53460;39.612;8.822;2022-07-19T13:22:17;4.43;;;1.20;;
66603;SDS011;53460;39.612;8.822;2022-07-19T13:24:43;1.27;;;0.70;;
66603;SDS011;53460;39.612;8.822;2022-07-19T13:27:09;4.93;;;0.90;;
66603;SDS011;53460;39.612;8.822;2022-07-19T13:29:35;2.17;;;1.10;;
66603;SDS011;53460;39.612;8.822;2022-07-19T13:32:02;9.10;;;1.10;;
66603;SDS011;53460;39.612;8.822;2022-07-19T13:34:28;2.47;;;1.17;;
66603;SDS011;53460;39.612;8.822;2022-07-19T13:36:54;2.47;;;0.85;;
66603;SDS011;53460;39.612;8.822;2022-07-19T13:39:23;1.73;;;0.75;;
66603;SDS011;53460;39.612;8.822;2022-07-19T13:41:48;4.03;;;0.80;;
66603;SDS011;53460;39.612;8.822;2022-07-19T13:44:16;4.32;;;0.90;;
66603;SDS011;53460;39.612;8.822;2022-07-19T13:46:41;1.33;;;1.00;;
66603;SDS011;53460;39.612;8.822;2022-07-19T13:49:07;1.45;;;1.08;;
66603;SDS011;53460;39.612;8.822;2022-07-19T13:51:33;1.00;;;0.90;;
66603;SDS011;53460;39.612;8.822;2022-07-19T13:53:58;2.10;;;0.82;;
66603;SDS011;53460;39.612;8.822;2022-07-19T13:56:24;2.78;;;1.20;;
66603;SDS011;53460;39.612;8.822;2022-07-19T13:58:50;3.83;;;1.00;;
66603;SDS011;53460;39.612;8.822;2022-07-19T14:01:16;4.00;;;1.10;;
66603;SDS011;53460;39.612;8.822;2022-07-19T14:03:41;3.92;;;1.15;;
66603;SDS011;53460;39.612;8.822;2022-07-19T14:06:07;1.70;;;1.00;;
66603;SDS011;53460;39.612;8.822;2022-07-19T14:08:33;4.53;;;1.02;;
66603;SDS011;53460;39.612;8.822;2022-07-19T14:10:59;9.73;;;1.10;;
66603;SDS011;53460;39.612;8.822;2022-07-19T14:13:25;2.22;;;0.90;;
66603;SDS011;53460;39.612;8.822;2022-07-19T14:15:51;4.70;;;1.25;;
66603;SDS011;53460;39.612;8.822;2022-07-19T14:18:17;3.60;;;0.90;;
66603;SDS011;53460;39.612;8.822;2022-07-19T14:20:42;6.20;;;1.25;;
66603;SDS011;53460;39.612;8.822;2022-07-19T14:23:09;2.92;;;1.00;;
66603;SDS011;53460;39.612;8.822;2022-07-19T14:25:36;3.53;;;1.00;;
66603;SDS011;53460;39.612;8.822;2022-07-19T14:28:02;5.40;;;1.63;;
66603;SDS011;53460;39.612;8.822;2022-07-19T14:30:28;4.28;;;1.50;;
66603;SDS011;53460;39.612;8.822;2022-07-19T14:32:54;1.38;;;1.10;;
66603;SDS011;53460;39.612;8.822;2022-07-19T14:35:19;3.22;;;1.10;;
66603;SDS011;53460;39.612;8.822;2022-07-19T14:37:45;2.85;;;1.30;;
66603;SDS011;53460;39.612;8.822;2022-07-19T14:40:11;4.97;;;1.10;;
66603;SDS011;53460;39.612;8.822;2022-07-19T14:42:38;2.63;;;1.33;;
66603;SDS011;53460;39.612;8.822;2022-07-19T14:45:04;3.47;;;1.25;;
66603;SDS011;53460;39.612;8.822;2022-07-19T14:47:32;1.98;;;1.30;;
66603;SDS011;53460;39.612;8.822;2022-07-19T14:49:58;3.70;;;1.30;;
66603;SDS011;53460;39.612;8.822;2022-07-19T14:52:24;4.15;;;1.30;;
66603;SDS011;53460;39.612;8.822;2022-07-19T14:54:50;6.47;;;1.65;;
66603;SDS011;53460;39.612;8.822;2022-07-19T14:57:16;4.47;;;1.50;;
66603;SDS011;53460;39.612;8.822;2022-07-19T14:59:41;2.17;;;1.20;;
66603;SDS011;53460;39.612;8.822;2022-07-19T15:02:07;4.57;;;1.23;;
66603;SDS011;53460;39.612;8.822;2022-07-19T15:04:33;4.07;;;1.23;;
66603;SDS011;53460;39.612;8.822;2022-07-19T15:07:00;3.65;;;1.10;;
66603;SDS011;53460;39.612;8.822;2022-07-19T15:09:25;3.30;;;1.17;;
66603;SDS011;53460;39.612;8.822;2022-07-19T15:11:52;2.60;;;0.98;;
66603;SDS011;53460;39.612;8.822;2022-07-19T15:14:27;3.53;;;1.33;;
66603;SDS011;53460;39.612;8.822;2022-07-19T15:16:58;1.67;;;1.13;;
66603;SDS011;53460;39.612;8.822;2022-07-19T15:19:25;5.28;;;1.30;;
66603;SDS011;53460;39.612;8.822;2022-07-19T15:21:51;3.25;;;1.20;;
66603;SDS011;53460;39.612;8.822;2022-07-19T15:24:18;5.70;;;1.30;;
66603;SDS011;53460;39.612;8.822;2022-07-19T15:26:44;4.15;;;0.90;;
66603;SDS011;53460;39.612;8.822;2022-07-19T15:29:11;2.78;;;1.10;;
66603;SDS011;53460;39.612;8.822;2022-07-19T15:31:37;3.67;;;1.23;;
66603;SDS011;53460;39.612;8.822;2022-07-19T15:34:03;2.33;;;1.20;;
66603;SDS011;53460;39.612;8.822;2022-07-19T15:36:29;2.80;;;1.13;;
66603;SDS011;53460;39.612;8.822;2022-07-19T15:38:56;4.05;;;1.20;;
66603;SDS011;53460;39.612;8.822;2022-07-19T15:41:23;2.35;;;1.10;;